sensor_id;sensor_type;location;lat;lon;timestamp;temperature;humidity
40434;DHT22;26146;51.114;5.654;2023-04-03T00:03:33;4.30;99.90
40434;DHT22;26146;51.114;5.654;2023-04-03T00:07:34;4.30;99.90
40434;DHT22;26146;51.114;5.654;2023-04-03T00:11:37;4.30;99.90
40434;DHT22;26146;51.114;5.654;2023-04-03T00:15:39;4.20;99.90
40434;DHT22;26146;51.114;5.654;2023-04-03T00:19:42;4.20;99.90
40434;DHT22;26146;51.114;5.654;2023-04-03T00:23:46;4.00;99.90
40434;DHT22;26146;51.114;5.654;2023-04-03T00:27:47;4.00;99.90
40434;DHT22;26146;51.114;5.654;2023-04-03T00:31:48;3.90;99.90
40434;DHT22;26146;51.114;5.654;2023-04-03T00:35:56;4.00;99.90
40434;DHT22;26146;51.114;5.654;2023-04-03T00:39:57;3.90;99.90
40434;DHT22;26146;51.114;5.654;2023-04-03T00:43:58;3.90;99.90
40434;DHT22;26146;51.114;5.654;2023-04-03T00:48:01;3.80;99.90
40434;DHT22;26146;51.114;5.654;2023-04-03T00:52:06;3.60;99.90
40434;DHT22;26146;51.114;5.654;2023-04-03T00:56:13;3.40;99.90
40434;DHT22;26146;51.114;5.654;2023-04-03T01:00:19;3.20;99.90
40434;DHT22;26146;51.114;5.654;2023-04-03T01:04:33;3.10;99.90
40434;DHT22;26146;51.114;5.654;2023-04-03T01:08:34;3.00;99.90
40434;DHT22;26146;51.114;5.654;2023-04-03T01:12:40;2.90;99.90
40434;DHT22;26146;51.114;5.654;2023-04-03T01:16:41;2.70;99.90
40434;DHT22;26146;51.114;5.654;2023-04-03T01:25:07;2.60;99.90
40434;DHT22;26146;51.114;5.654;2023-04-03T01:29:09;2.40;99.90
40434;DHT22;26146;51.114;5.654;2023-04-03T01:33:12;2.50;99.90
40434;DHT22;26146;51.114;5.654;2023-04-03T01:37:13;2.40;99.90
40434;DHT22;26146;51.114;5.654;2023-04-03T01:41:15;2.40;99.90
40434;DHT22;26146;51.114;5.654;2023-04-03T01:45:16;2.40;99.90
40434;DHT22;26146;51.114;5.654;2023-04-03T01:49:20;2.30;99.90
40434;DHT22;26146;51.114;5.654;2023-04-03T01:53:21;2.30;99.90
40434;DHT22;26146;51.114;5.654;2023-04-03T01:57:22;2.20;99.90
40434;DHT22;26146;51.114;5.654;2023-04-03T02:01:23;2.20;99.90
40434;DHT22;26146;51.114;5.654;2023-04-03T02:05:27;2.20;99.90
40434;DHT22;26146;51.114;5.654;2023-04-03T02:09:27;2.20;99.90
40434;DHT22;26146;51.114;5.654;2023-04-03T02:13:28;2.20;99.90
40434;DHT22;26146;51.114;5.654;2023-04-03T02:17:29;2.10;99.90
40434;DHT22;26146;51.114;5.654;2023-04-03T02:21:30;2.20;99.90
40434;DHT22;26146;51.114;5.654;2023-04-03T02:25:32;2.10;99.90
40434;DHT22;26146;51.114;5.654;2023-04-03T02:29:33;2.10;99.90
40434;DHT22;26146;51.114;5.654;2023-04-03T02:33:34;2.10;99.90
40434;DHT22;26146;51.114;5.654;2023-04-03T02:37:37;2.10;99.90
40434;DHT22;26146;51.114;5.654;2023-04-03T02:41:38;2.10;99.90
40434;DHT22;26146;51.114;5.654;2023-04-03T02:45:39;2.20;99.90
40434;DHT22;26146;51.114;5.654;2023-04-03T02:49:40;2.20;99.90
40434;DHT22;26146;51.114;5.654;2023-04-03T02:53:41;2.20;99.90
40434;DHT22;26146;51.114;5.654;2023-04-03T02:57:42;2.20;99.90
40434;DHT22;26146;51.114;5.654;2023-04-03T03:01:43;2.10;99.90
40434;DHT22;26146;51.114;5.654;2023-04-03T03:05:44;2.10;99.90
40434;DHT22;26146;51.114;5.654;2023-04-03T03:09:45;2.20;99.90
40434;DHT22;26146;51.114;5.654;2023-04-03T03:13:46;2.10;99.90
40434;DHT22;26146;51.114;5.654;2023-04-03T03:17:47;2.20;99.90
40434;DHT22;26146;51.114;5.654;2023-04-03T03:21:48;2.10;99.90
40434;DHT22;26146;51.114;5.654;2023-04-03T03:25:53;2.00;99.90
40434;DHT22;26146;51.114;5.654;2023-04-03T03:29:57;2.00;99.90
40434;DHT22;26146;51.114;5.654;2023-04-03T03:33:58;1.80;99.90
40434;DHT22;26146;51.114;5.654;2023-04-03T03:37:59;1.70;99.90
40434;DHT22;26146;51.114;5.654;2023-04-03T03:42:00;1.60;99.90
40434;DHT22;26146;51.114;5.654;2023-04-03T03:46:01;1.70;99.90
40434;DHT22;26146;51.114;5.654;2023-04-03T03:50:05;1.70;99.90
40434;DHT22;26146;51.114;5.654;2023-04-03T03:54:06;1.60;99.90
40434;DHT22;26146;51.114;5.654;2023-04-03T03:58:07;1.70;99.90
40434;DHT22;26146;51.114;5.654;2023-04-03T04:02:08;1.70;99.90
40434;DHT22;26146;51.114;5.654;2023-04-03T04:06:09;1.80;99.90
40434;DHT22;26146;51.114;5.654;2023-04-03T04:10:10;2.00;99.90
40434;DHT22;26146;51.114;5.654;2023-04-03T04:14:11;2.00;99.90
40434;DHT22;26146;51.114;5.654;2023-04-03T04:18:14;2.00;99.90
40434;DHT22;26146;51.114;5.654;2023-04-03T04:22:15;2.00;99.90
40434;DHT22;26146;51.114;5.654;2023-04-03T04:26:16;2.00;99.90
40434;DHT22;26146;51.114;5.654;2023-04-03T04:30:17;2.00;99.90
40434;DHT22;26146;51.114;5.654;2023-04-03T04:34:18;1.90;99.90
40434;DHT22;26146;51.114;5.654;2023-04-03T04:38:19;1.90;99.90
40434;DHT22;26146;51.114;5.654;2023-04-03T04:42:20;1.90;99.90
40434;DHT22;26146;51.114;5.654;2023-04-03T04:46:21;1.90;99.90
40434;DHT22;26146;51.114;5.654;2023-04-03T04:50:22;1.90;99.90
40434;DHT22;26146;51.114;5.654;2023-04-03T04:54:23;2.00;99.90
40434;DHT22;26146;51.114;5.654;2023-04-03T04:58:24;2.00;99.90
40434;DHT22;26146;51.114;5.654;2023-04-03T05:02:25;2.10;99.90
40434;DHT22;26146;51.114;5.654;2023-04-03T05:06:26;2.10;99.90
40434;DHT22;26146;51.114;5.654;2023-04-03T05:10:26;2.10;99.90
40434;DHT22;26146;51.114;5.654;2023-04-03T05:14:34;2.10;99.90
40434;DHT22;26146;51.114;5.654;2023-04-03T05:18:37;2.10;99.90
40434;DHT22;26146;51.114;5.654;2023-04-03T05:22:38;2.20;99.90
40434;DHT22;26146;51.114;5.654;2023-04-03T05:26:42;2.20;99.90
40434;DHT22;26146;51.114;5.654;2023-04-03T05:30:43;2.50;99.90
40434;DHT22;26146;51.114;5.654;2023-04-03T05:34:44;2.40;99.90
40434;DHT22;26146;51.114;5.654;2023-04-03T05:38:45;2.40;99.90
40434;DHT22;26146;51.114;5.654;2023-04-03T05:42:46;2.30;99.90
40434;DHT22;26146;51.114;5.654;2023-04-03T05:46:47;2.40;99.90
40434;DHT22;26146;51.114;5.654;2023-04-03T05:50:48;2.40;99.90
40434;DHT22;26146;51.114;5.654;2023-04-03T05:54:49;2.60;99.90
40434;DHT22;26146;51.114;5.654;2023-04-03T05:58:50;2.70;99.90
40434;DHT22;26146;51.114;5.654;2023-04-03T06:02:51;2.70;99.90
40434;DHT22;26146;51.114;5.654;2023-04-03T06:06:57;2.80;99.90
40434;DHT22;26146;51.114;5.654;2023-04-03T06:10:58;2.80;99.90
40434;DHT22;26146;51.114;5.654;2023-04-03T06:14:59;3.00;99.90
40434;DHT22;26146;51.114;5.654;2023-04-03T06:19:00;3.10;99.90
40434;DHT22;26146;51.114;5.654;2023-04-03T06:23:01;3.20;99.90
40434;DHT22;26146;51.114;5.654;2023-04-03T06:27:02;3.30;99.90
40434;DHT22;26146;51.114;5.654;2023-04-03T06:31:03;3.30;99.90
40434;DHT22;26146;51.114;5.654;2023-04-03T06:35:05;3.50;99.90
40434;DHT22;26146;51.114;5.654;2023-04-03T06:39:07;3.50;99.90
40434;DHT22;26146;51.114;5.654;2023-04-03T06:43:09;3.60;99.90
40434;DHT22;26146;51.114;5.654;2023-04-03T06:47:13;3.60;99.90
40434;DHT22;26146;51.114;5.654;2023-04-03T06:51:28;3.60;99.90
40434;DHT22;26146;51.114;5.654;2023-04-03T06:55:29;3.70;99.90
40434;DHT22;26146;51.114;5.654;2023-04-03T06:59:31;3.70;99.90
40434;DHT22;26146;51.114;5.654;2023-04-03T07:03:32;3.80;99.90
40434;DHT22;26146;51.114;5.654;2023-04-03T07:07:33;4.10;99.90
40434;DHT22;26146;51.114;5.654;2023-04-03T07:11:35;4.00;99.90
40434;DHT22;26146;51.114;5.654;2023-04-03T07:15:36;4.20;99.90
40434;DHT22;26146;51.114;5.654;2023-04-03T07:19:38;4.40;99.90
40434;DHT22;26146;51.114;5.654;2023-04-03T07:23:39;4.40;99.90
40434;DHT22;26146;51.114;5.654;2023-04-03T07:27:41;4.40;99.90
40434;DHT22;26146;51.114;5.654;2023-04-03T07:31:42;4.60;99.90
40434;DHT22;26146;51.114;5.654;2023-04-03T07:35:45;4.70;99.90
40434;DHT22;26146;51.114;5.654;2023-04-03T07:39:48;4.70;99.90
40434;DHT22;26146;51.114;5.654;2023-04-03T07:43:52;4.70;99.90
40434;DHT22;26146;51.114;5.654;2023-04-03T07:47:53;5.00;99.90
40434;DHT22;26146;51.114;5.654;2023-04-03T07:51:54;5.10;99.90
40434;DHT22;26146;51.114;5.654;2023-04-03T07:55:56;5.20;99.90
40434;DHT22;26146;51.114;5.654;2023-04-03T07:59:57;5.30;99.90
40434;DHT22;26146;51.114;5.654;2023-04-03T08:04:01;5.40;99.90
40434;DHT22;26146;51.114;5.654;2023-04-03T08:08:02;5.50;99.90
40434;DHT22;26146;51.114;5.654;2023-04-03T08:12:03;5.60;99.90
40434;DHT22;26146;51.114;5.654;2023-04-03T08:16:12;5.60;99.90
40434;DHT22;26146;51.114;5.654;2023-04-03T08:20:14;5.60;99.90
40434;DHT22;26146;51.114;5.654;2023-04-03T08:24:15;5.80;99.90
40434;DHT22;26146;51.114;5.654;2023-04-03T08:28:18;5.80;99.90
40434;DHT22;26146;51.114;5.654;2023-04-03T08:32:19;6.10;99.90
40434;DHT22;26146;51.114;5.654;2023-04-03T08:36:28;6.00;99.90
40434;DHT22;26146;51.114;5.654;2023-04-03T08:40:29;6.10;99.90
40434;DHT22;26146;51.114;5.654;2023-04-03T08:45:01;6.10;99.90
40434;DHT22;26146;51.114;5.654;2023-04-03T08:49:04;6.30;99.90
40434;DHT22;26146;51.114;5.654;2023-04-03T08:53:22;6.30;99.90
40434;DHT22;26146;51.114;5.654;2023-04-03T08:57:35;6.50;99.90
40434;DHT22;26146;51.114;5.654;2023-04-03T09:01:42;6.50;99.90
40434;DHT22;26146;51.114;5.654;2023-04-03T09:05:57;6.60;99.90
40434;DHT22;26146;51.114;5.654;2023-04-03T09:10:00;6.80;99.90
40434;DHT22;26146;51.114;5.654;2023-04-03T09:14:17;6.90;99.90
40434;DHT22;26146;51.114;5.654;2023-04-03T09:18:40;6.90;99.90
40434;DHT22;26146;51.114;5.654;2023-04-03T09:22:43;6.80;99.90
40434;DHT22;26146;51.114;5.654;2023-04-03T09:30:48;7.00;99.00
40434;DHT22;26146;51.114;5.654;2023-04-03T09:34:49;7.00;98.70
40434;DHT22;26146;51.114;5.654;2023-04-03T09:39:17;7.10;97.80
40434;DHT22;26146;51.114;5.654;2023-04-03T09:43:30;6.90;95.40
40434;DHT22;26146;51.114;5.654;2023-04-03T09:47:33;7.10;95.30
40434;DHT22;26146;51.114;5.654;2023-04-03T09:51:34;7.40;94.50
40434;DHT22;26146;51.114;5.654;2023-04-03T09:55:43;7.40;90.20
40434;DHT22;26146;51.114;5.654;2023-04-03T10:00:01;7.30;90.10
40434;DHT22;26146;51.114;5.654;2023-04-03T10:12:20;7.90;89.00
40434;DHT22;26146;51.114;5.654;2023-04-03T10:16:48;7.70;90.20
40434;DHT22;26146;51.114;5.654;2023-04-03T10:20:54;7.80;90.70
40434;DHT22;26146;51.114;5.654;2023-04-03T10:29:36;8.00;91.00
40434;DHT22;26146;51.114;5.654;2023-04-03T10:46:38;8.20;89.20
40434;DHT22;26146;51.114;5.654;2023-04-03T10:59:46;8.00;89.50
40434;DHT22;26146;51.114;5.654;2023-04-03T11:03:57;8.40;90.60
40434;DHT22;26146;51.114;5.654;2023-04-03T11:08:05;8.60;87.50
40434;DHT22;26146;51.114;5.654;2023-04-03T11:12:30;8.50;82.40
40434;DHT22;26146;51.114;5.654;2023-04-03T11:16:36;8.50;84.10
40434;DHT22;26146;51.114;5.654;2023-04-03T11:20:38;8.60;78.00
40434;DHT22;26146;51.114;5.654;2023-04-03T11:24:44;8.60;79.60
40434;DHT22;26146;51.114;5.654;2023-04-03T11:28:53;8.70;80.00
40434;DHT22;26146;51.114;5.654;2023-04-03T11:41:30;8.50;77.90
40434;DHT22;26146;51.114;5.654;2023-04-03T11:45:50;8.60;79.20
40434;DHT22;26146;51.114;5.654;2023-04-03T11:50:00;8.70;79.70
40434;DHT22;26146;51.114;5.654;2023-04-03T11:54:43;8.80;79.40
40434;DHT22;26146;51.114;5.654;2023-04-03T12:07:26;9.10;77.80
40434;DHT22;26146;51.114;5.654;2023-04-03T12:11:31;8.90;79.70
40434;DHT22;26146;51.114;5.654;2023-04-03T12:19:40;9.00;82.40
40434;DHT22;26146;51.114;5.654;2023-04-03T12:28:05;9.30;83.50
40434;DHT22;26146;51.114;5.654;2023-04-03T12:36:46;9.20;80.70
40434;DHT22;26146;51.114;5.654;2023-04-03T12:45:23;9.40;84.70
40434;DHT22;26146;51.114;5.654;2023-04-03T12:53:33;9.50;82.70
40434;DHT22;26146;51.114;5.654;2023-04-03T12:57:37;9.60;80.90
40434;DHT22;26146;51.114;5.654;2023-04-03T13:01:38;9.50;84.80
40434;DHT22;26146;51.114;5.654;2023-04-03T13:05:40;9.60;83.30
40434;DHT22;26146;51.114;5.654;2023-04-03T13:09:55;9.70;84.10
40434;DHT22;26146;51.114;5.654;2023-04-03T13:14:04;9.90;81.90
40434;DHT22;26146;51.114;5.654;2023-04-03T13:18:22;9.80;83.40
40434;DHT22;26146;51.114;5.654;2023-04-03T13:26:31;9.60;83.00
40434;DHT22;26146;51.114;5.654;2023-04-03T13:30:36;9.70;85.40
40434;DHT22;26146;51.114;5.654;2023-04-03T13:34:41;9.80;82.90
40434;DHT22;26146;51.114;5.654;2023-04-03T13:38:42;10.10;83.60
40434;DHT22;26146;51.114;5.654;2023-04-03T13:42:43;10.10;81.70
40434;DHT22;26146;51.114;5.654;2023-04-03T13:46:45;10.00;81.00
40434;DHT22;26146;51.114;5.654;2023-04-03T13:51:33;9.80;82.00
40434;DHT22;26146;51.114;5.654;2023-04-03T13:59:35;10.10;84.30
40434;DHT22;26146;51.114;5.654;2023-04-03T14:03:57;10.00;79.50
40434;DHT22;26146;51.114;5.654;2023-04-03T14:08:01;10.00;82.40
40434;DHT22;26146;51.114;5.654;2023-04-03T14:12:07;10.30;81.30
40434;DHT22;26146;51.114;5.654;2023-04-03T14:16:14;10.30;81.10
40434;DHT22;26146;51.114;5.654;2023-04-03T14:20:21;10.30;80.10
40434;DHT22;26146;51.114;5.654;2023-04-03T14:24:23;10.30;78.10
40434;DHT22;26146;51.114;5.654;2023-04-03T14:28:23;10.30;79.20
40434;DHT22;26146;51.114;5.654;2023-04-03T14:32:26;10.40;80.00
40434;DHT22;26146;51.114;5.654;2023-04-03T14:36:29;10.20;79.90
40434;DHT22;26146;51.114;5.654;2023-04-03T14:40:30;10.10;79.80
40434;DHT22;26146;51.114;5.654;2023-04-03T14:44:31;10.30;78.50
40434;DHT22;26146;51.114;5.654;2023-04-03T14:48:35;10.10;81.80
40434;DHT22;26146;51.114;5.654;2023-04-03T14:52:38;10.30;82.60
40434;DHT22;26146;51.114;5.654;2023-04-03T14:56:40;10.30;79.80
40434;DHT22;26146;51.114;5.654;2023-04-03T15:00:43;10.20;82.40
40434;DHT22;26146;51.114;5.654;2023-04-03T15:04:44;10.10;80.90
40434;DHT22;26146;51.114;5.654;2023-04-03T15:08:47;10.10;80.50
40434;DHT22;26146;51.114;5.654;2023-04-03T15:12:49;10.20;80.50
40434;DHT22;26146;51.114;5.654;2023-04-03T15:16:55;10.30;81.30
40434;DHT22;26146;51.114;5.654;2023-04-03T15:20:58;10.20;78.80
40434;DHT22;26146;51.114;5.654;2023-04-03T15:24:59;10.20;80.90
40434;DHT22;26146;51.114;5.654;2023-04-03T15:29:00;10.10;78.00
40434;DHT22;26146;51.114;5.654;2023-04-03T15:33:01;9.90;80.30
40434;DHT22;26146;51.114;5.654;2023-04-03T15:37:02;10.00;78.80
40434;DHT22;26146;51.114;5.654;2023-04-03T15:41:03;9.90;79.60
40434;DHT22;26146;51.114;5.654;2023-04-03T15:45:06;10.00;79.80
40434;DHT22;26146;51.114;5.654;2023-04-03T15:49:07;9.90;78.90
40434;DHT22;26146;51.114;5.654;2023-04-03T15:53:08;9.90;80.00
40434;DHT22;26146;51.114;5.654;2023-04-03T15:57:09;9.90;82.10
40434;DHT22;26146;51.114;5.654;2023-04-03T16:01:11;9.90;82.70
40434;DHT22;26146;51.114;5.654;2023-04-03T16:05:13;9.80;81.20
40434;DHT22;26146;51.114;5.654;2023-04-03T16:09:16;9.70;81.40
40434;DHT22;26146;51.114;5.654;2023-04-03T16:13:19;9.60;80.40
40434;DHT22;26146;51.114;5.654;2023-04-03T16:17:21;9.60;81.00
40434;DHT22;26146;51.114;5.654;2023-04-03T16:21:22;9.60;80.90
40434;DHT22;26146;51.114;5.654;2023-04-03T16:25:23;9.60;79.90
40434;DHT22;26146;51.114;5.654;2023-04-03T16:29:24;9.60;81.10
40434;DHT22;26146;51.114;5.654;2023-04-03T16:33:25;9.60;80.70
40434;DHT22;26146;51.114;5.654;2023-04-03T16:37:26;9.60;81.50
40434;DHT22;26146;51.114;5.654;2023-04-03T16:41:27;9.40;80.50
40434;DHT22;26146;51.114;5.654;2023-04-03T16:45:28;9.40;80.80
40434;DHT22;26146;51.114;5.654;2023-04-03T16:49:29;9.40;81.40
40434;DHT22;26146;51.114;5.654;2023-04-03T16:53:33;9.50;82.80
40434;DHT22;26146;51.114;5.654;2023-04-03T16:57:34;9.30;83.20
40434;DHT22;26146;51.114;5.654;2023-04-03T17:01:35;9.20;84.10
40434;DHT22;26146;51.114;5.654;2023-04-03T17:05:36;9.20;83.20
40434;DHT22;26146;51.114;5.654;2023-04-03T17:09:39;9.10;82.70
40434;DHT22;26146;51.114;5.654;2023-04-03T17:13:40;9.10;82.30
40434;DHT22;26146;51.114;5.654;2023-04-03T17:17:41;8.80;82.90
40434;DHT22;26146;51.114;5.654;2023-04-03T17:21:43;8.90;84.80
40434;DHT22;26146;51.114;5.654;2023-04-03T17:25:44;8.80;83.80
40434;DHT22;26146;51.114;5.654;2023-04-03T17:29:48;8.70;84.60
40434;DHT22;26146;51.114;5.654;2023-04-03T17:33:49;8.60;85.30
40434;DHT22;26146;51.114;5.654;2023-04-03T17:37:50;8.60;85.80
40434;DHT22;26146;51.114;5.654;2023-04-03T17:41:52;8.60;85.20
40434;DHT22;26146;51.114;5.654;2023-04-03T17:46:00;8.40;87.00
40434;DHT22;26146;51.114;5.654;2023-04-03T17:50:04;8.40;86.60
40434;DHT22;26146;51.114;5.654;2023-04-03T17:54:06;8.40;86.60
40434;DHT22;26146;51.114;5.654;2023-04-03T17:58:07;8.20;87.10
40434;DHT22;26146;51.114;5.654;2023-04-03T18:02:08;7.90;88.00
40434;DHT22;26146;51.114;5.654;2023-04-03T18:06:15;7.90;88.90
40434;DHT22;26146;51.114;5.654;2023-04-03T18:10:19;7.80;88.70
40434;DHT22;26146;51.114;5.654;2023-04-03T18:14:24;7.80;87.40
40434;DHT22;26146;51.114;5.654;2023-04-03T18:18:26;7.70;88.40
40434;DHT22;26146;51.114;5.654;2023-04-03T18:22:30;7.50;90.30
40434;DHT22;26146;51.114;5.654;2023-04-03T18:26:32;7.50;90.40
40434;DHT22;26146;51.114;5.654;2023-04-03T18:30:34;7.40;90.70
40434;DHT22;26146;51.114;5.654;2023-04-03T18:34:35;7.30;90.80
40434;DHT22;26146;51.114;5.654;2023-04-03T18:38:36;7.30;90.70
40434;DHT22;26146;51.114;5.654;2023-04-03T18:42:38;7.20;91.10
40434;DHT22;26146;51.114;5.654;2023-04-03T18:46:40;7.10;91.20
40434;DHT22;26146;51.114;5.654;2023-04-03T18:50:42;7.00;91.80
40434;DHT22;26146;51.114;5.654;2023-04-03T18:54:43;6.90;91.60
40434;DHT22;26146;51.114;5.654;2023-04-03T18:58:44;6.90;92.00
40434;DHT22;26146;51.114;5.654;2023-04-03T19:02:45;6.80;92.30
40434;DHT22;26146;51.114;5.654;2023-04-03T19:06:51;6.80;92.30
40434;DHT22;26146;51.114;5.654;2023-04-03T19:10:53;6.80;92.50
40434;DHT22;26146;51.114;5.654;2023-04-03T19:14:54;6.70;92.60
40434;DHT22;26146;51.114;5.654;2023-04-03T19:18:54;6.60;93.00
40434;DHT22;26146;51.114;5.654;2023-04-03T19:22:55;6.60;93.00
40434;DHT22;26146;51.114;5.654;2023-04-03T19:26:59;6.50;93.80
40434;DHT22;26146;51.114;5.654;2023-04-03T19:31:00;6.40;94.20
40434;DHT22;26146;51.114;5.654;2023-04-03T19:35:02;6.40;94.30
40434;DHT22;26146;51.114;5.654;2023-04-03T19:39:09;6.30;94.40
40434;DHT22;26146;51.114;5.654;2023-04-03T19:43:14;6.30;94.90
40434;DHT22;26146;51.114;5.654;2023-04-03T19:47:15;6.10;95.20
40434;DHT22;26146;51.114;5.654;2023-04-03T19:51:17;6.10;95.50
40434;DHT22;26146;51.114;5.654;2023-04-03T19:55:19;6.10;95.40
40434;DHT22;26146;51.114;5.654;2023-04-03T19:59:20;6.10;95.50
40434;DHT22;26146;51.114;5.654;2023-04-03T20:03:21;6.10;95.40
40434;DHT22;26146;51.114;5.654;2023-04-03T20:07:22;6.10;95.30
40434;DHT22;26146;51.114;5.654;2023-04-03T20:11:26;5.90;95.70
40434;DHT22;26146;51.114;5.654;2023-04-03T20:15:27;5.80;96.00
40434;DHT22;26146;51.114;5.654;2023-04-03T20:19:30;5.70;96.30
40434;DHT22;26146;51.114;5.654;2023-04-03T20:23:32;5.70;96.40
40434;DHT22;26146;51.114;5.654;2023-04-03T20:27:36;5.70;96.40
40434;DHT22;26146;51.114;5.654;2023-04-03T20:31:37;5.70;96.20
40434;DHT22;26146;51.114;5.654;2023-04-03T20:35:41;5.60;96.50
40434;DHT22;26146;51.114;5.654;2023-04-03T20:39:42;5.60;96.40
40434;DHT22;26146;51.114;5.654;2023-04-03T20:43:43;5.60;96.50
40434;DHT22;26146;51.114;5.654;2023-04-03T20:47:47;5.40;96.70
40434;DHT22;26146;51.114;5.654;2023-04-03T20:51:51;5.50;96.80
40434;DHT22;26146;51.114;5.654;2023-04-03T20:55:56;5.30;97.00
40434;DHT22;26146;51.114;5.654;2023-04-03T20:59:59;5.40;97.10
40434;DHT22;26146;51.114;5.654;2023-04-03T21:04:13;5.30;97.50
40434;DHT22;26146;51.114;5.654;2023-04-03T21:21:33;5.10;97.90
40434;DHT22;26146;51.114;5.654;2023-04-03T21:25:36;5.20;97.90
40434;DHT22;26146;51.114;5.654;2023-04-03T21:29:37;5.10;97.80
40434;DHT22;26146;51.114;5.654;2023-04-03T21:33:38;5.10;97.80
40434;DHT22;26146;51.114;5.654;2023-04-03T21:37:39;5.10;98.20
40434;DHT22;26146;51.114;5.654;2023-04-03T21:41:40;5.00;98.30
40434;DHT22;26146;51.114;5.654;2023-04-03T21:45:41;5.10;98.10
40434;DHT22;26146;51.114;5.654;2023-04-03T21:49:45;5.20;98.00
40434;DHT22;26146;51.114;5.654;2023-04-03T21:53:53;5.30;97.60
40434;DHT22;26146;51.114;5.654;2023-04-03T21:57:54;5.30;97.80
40434;DHT22;26146;51.114;5.654;2023-04-03T22:01:55;5.10;98.20
40434;DHT22;26146;51.114;5.654;2023-04-03T22:05:58;5.10;98.10
40434;DHT22;26146;51.114;5.654;2023-04-03T22:09:59;4.80;98.60
40434;DHT22;26146;51.114;5.654;2023-04-03T22:14:03;4.70;99.30
40434;DHT22;26146;51.114;5.654;2023-04-03T22:18:04;4.60;99.00
40434;DHT22;26146;51.114;5.654;2023-04-03T22:22:05;4.50;99.10
40434;DHT22;26146;51.114;5.654;2023-04-03T22:26:08;4.50;99.20
40434;DHT22;26146;51.114;5.654;2023-04-03T22:30:10;4.50;99.00
40434;DHT22;26146;51.114;5.654;2023-04-03T22:34:11;4.70;98.90
40434;DHT22;26146;51.114;5.654;2023-04-03T22:38:12;4.80;98.90
40434;DHT22;26146;51.114;5.654;2023-04-03T22:42:15;4.80;98.50
40434;DHT22;26146;51.114;5.654;2023-04-03T22:46:15;4.90;98.20
40434;DHT22;26146;51.114;5.654;2023-04-03T22:50:16;5.10;98.50
40434;DHT22;26146;51.114;5.654;2023-04-03T22:54:17;5.00;98.40
40434;DHT22;26146;51.114;5.654;2023-04-03T22:58:18;5.00;98.50
40434;DHT22;26146;51.114;5.654;2023-04-03T23:02:23;4.80;98.40
40434;DHT22;26146;51.114;5.654;2023-04-03T23:06:23;4.70;98.50
40434;DHT22;26146;51.114;5.654;2023-04-03T23:10:28;4.60;98.50
40434;DHT22;26146;51.114;5.654;2023-04-03T23:14:29;4.50;98.60
40434;DHT22;26146;51.114;5.654;2023-04-03T23:18:31;4.40;98.80
40434;DHT22;26146;51.114;5.654;2023-04-03T23:22:32;4.50;98.60
40434;DHT22;26146;51.114;5.654;2023-04-03T23:26:35;4.50;98.60
40434;DHT22;26146;51.114;5.654;2023-04-03T23:30:36;4.60;98.50
40434;DHT22;26146;51.114;5.654;2023-04-03T23:34:37;4.50;98.60
40434;DHT22;26146;51.114;5.654;2023-04-03T23:38:38;4.60;98.40
40434;DHT22;26146;51.114;5.654;2023-04-03T23:42:39;4.70;98.20
40434;DHT22;26146;51.114;5.654;2023-04-03T23:46:42;4.50;98.60
40434;DHT22;26146;51.114;5.654;2023-04-03T23:50:43;4.60;98.60
40434;DHT22;26146;51.114;5.654;2023-04-03T23:54:44;4.50;99.20
40434;DHT22;26146;51.114;5.654;2023-04-03T23:58:46;4.30;99.20
